Hamada, Japan

3:17 AM JST on August 22, 2014 (GMT +0900)
Iwakuni Marine Corps Air Station | Change Station
CLOSE
Current Station
Airport
Location: Iwakuni MCAS,
Elevation: 7 ft
Nearby Weather Stations

Elev 7 ft 34.14 °N, 132.24 °E | Updated 47 minutes ago

Light Thunderstorms and Rain
Light Thunderstorm Rain
81 °F
Feels Like 87 °F
N
10
Wind Variable Wind from SSW

Today
High -- | Low -- °F
--% Chance of Precip.
Yesterday
High -- | Low -- °F
Precip. -- in
5:36 AM 6:52 PM
Waning Crescent, 13% visible
Pressure 29.86 in
Visibility 5.6 miles
Clouds Scattered Clouds 2500 ft
Mostly Cloudy 4000 ft
Overcast 6000 ft
Heat Index 87 °F
Dew Point 74 °F
Humidity 79%
Rainfall 0.00 in
Snow Depth Not available.
UV 0 out of 12
Pollen Not available.
Air Quality Not available.
Flu Activity Not available.
SPECI RJOI 211730Z 20009KT 9000 -TSRA SCT025 BKN040 OVC060 27/23 A2986 RMK SLP112 T02730233

More Conditions Fewer Conditions

Pressure 29.86 in
Visibility 5.6 miles
Clouds Scattered Clouds 2500 ft
Mostly Cloudy 4000 ft
Overcast 6000 ft
Heat Index 87 °F
Dew Point 74 °F
Humidity 79%
Rainfall 0.00 in
Snow Depth Not available.
UV 0 out of 12
Pollen Not available.
Air Quality Not available.
Flu Activity Not available.
SPECI RJOI 211730Z 20009KT 9000 -TSRA SCT025 BKN040 OVC060 27/23 A2986 RMK SLP112 T02730233

More Conditions Fewer Conditions

10-Day Weather Forecast

Almanac

Astronomy

Aug. 22, 2014 Rise Set
Actual Time 5:36 AM JST 6:52 PM JST
Civil Twilight 5:10 AM JST 7:18 PM JST
Nautical Twilight 4:38 AM JST 7:49 PM JST
Astronomical Twilight 4:06 AM JST 8:22 PM JST
Moon 2:30 AM JST (8/22) 4:33 PM JST (8/22)
Length of Visible Light 14h 08m
Length of Day
13h 15m
Tomorrow will be 2m 0s shorter.
Waning Crescent, 13% of the Moon is Illuminated
Aug 21
Waning Crescent
Aug 25
New
Sep 2
First Quarter
Sep 8
Full
Sep 15
Last Quarter

Yesterday's Extremes

Country Highs Country Lows

Community

WunderPhotos

Upload Photos

1,745,992 photos uploaded!

WunderBlogs® & News

Nearby

Snow Depth

Not available.

Earthquake Activity

City Distance Mag. Time & Date
No recent earthquake activity has been reported nearby.
Minimum magnitude displayed is 2.5.

Coastal Water Temperatures

Place Temperature
No Stations Reporting

Nearby Weather Stations